createdAt,value
2019-03-21T00:00:50.125Z,102961.85
2019-03-21T00:03:23.183Z,102963.17
2019-03-21T00:05:54.807Z,102964.95
2019-03-21T00:08:25.627Z,102964.52
2019-03-21T00:11:38.600Z,102964.95
2019-03-21T00:14:19.515Z,102968.95
2019-03-21T00:16:52.748Z,102964.08
2019-03-21T00:19:23.769Z,102964.52
2019-03-21T00:21:55.063Z,102971.53
2019-03-21T00:24:26.938Z,102972.88
2019-03-21T00:27:00.759Z,102979.03
2019-03-21T00:29:33.967Z,102978.14
2019-03-21T00:32:06.487Z,102977.61
2019-03-21T00:34:37.527Z,102975.48
2019-03-21T00:37:10.680Z,102977.27
2019-03-21T00:39:43.129Z,102979.84
2019-03-21T00:42:15.270Z,102978.98
2019-03-21T00:44:49.414Z,102975.67
2019-03-21T00:47:23.390Z,102978.52
2019-03-21T00:49:54.123Z,102974.45
2019-03-21T00:52:25.619Z,102970.97
2019-03-21T00:54:57.566Z,102971.02
2019-03-21T00:57:29.916Z,102979.02
2019-03-21T01:00:02.377Z,102978.06
2019-03-21T01:02:36.553Z,102971.36
2019-03-21T01:05:09.415Z,102972.63
2019-03-21T01:07:40.663Z,102965.95
2019-03-21T01:10:14.680Z,102970.14
2019-03-21T01:12:45.496Z,102962.91
2019-03-21T01:15:16.229Z,102961.40
2019-03-21T01:17:48.585Z,102957.15
2019-03-21T01:20:20.121Z,102963.52
2019-03-21T01:22:50.956Z,102960.55
2019-03-21T01:25:25.081Z,102952.84
2019-03-21T01:27:56.523Z,102950.56
2019-03-21T01:30:28.445Z,102951.11
2019-03-21T01:33:00.150Z,102955.16
2019-03-21T01:35:31.221Z,102952.81
2019-03-21T01:38:02.812Z,102960.86
2019-03-21T01:40:37.049Z,102959.51
2019-03-21T01:43:08.580Z,102956.82
2019-03-21T01:45:40.182Z,102958.66
2019-03-21T01:48:12.958Z,102956.98
2019-03-21T01:50:44.655Z,102960.55
2019-03-21T01:53:16.596Z,102969.89
2019-03-21T01:55:49.194Z,102966.40
2019-03-21T01:58:22.100Z,102965.95
2019-03-21T02:00:56.469Z,102962.36
2019-03-21T02:03:29.295Z,102959.27
2019-03-21T02:06:01.535Z,102950.34
2019-03-21T02:08:32.560Z,102952.89
2019-03-21T02:11:04.752Z,102943.47
2019-03-21T02:13:35.950Z,102945.59
2019-03-21T02:16:07.616Z,102950.67
2019-03-21T02:18:40.406Z,102952.49
2019-03-21T02:21:11.532Z,102948.14
2019-03-21T02:23:44.381Z,102942.75
2019-03-21T02:26:15.912Z,102944.56
2019-03-21T02:28:48.931Z,102949.25
2019-03-21T02:31:20.028Z,102939.50
2019-03-21T02:33:52.544Z,102940.03
2019-03-21T02:36:24.365Z,102939.91
2019-03-21T02:38:58.824Z,102944.06
2019-03-21T02:41:31.112Z,102939.45
2019-03-21T02:44:03.760Z,102932.25
2019-03-21T02:46:34.903Z,102942.88
2019-03-21T02:49:07.234Z,102935.25
2019-03-21T02:51:39.191Z,102934.92
2019-03-21T02:54:11.555Z,102932.43
2019-03-21T02:56:43.750Z,102934.50
2019-03-21T02:59:15.777Z,102935.05
2019-03-21T03:01:49.254Z,102930.31
2019-03-21T03:04:24.758Z,102926.14
2019-03-21T03:06:56.917Z,102929.25
2019-03-21T03:09:27.800Z,102931.23
2019-03-21T03:11:58.877Z,102929.42
2019-03-21T03:14:30.806Z,102929.06
2019-03-21T03:17:01.780Z,102926.06
2019-03-21T03:19:34.734Z,102925.86
2019-03-21T03:22:05.950Z,102924.16
2019-03-21T03:24:41.409Z,102934.26
2019-03-21T03:27:17.305Z,102925.94
2019-03-21T03:29:49.844Z,102930.03
2019-03-21T03:32:21.840Z,102924.28
2019-03-21T03:34:54.931Z,102927.00
2019-03-21T03:37:26.087Z,102926.61
2019-03-21T03:39:56.922Z,102930.86
2019-03-21T03:42:28.379Z,102932.84
2019-03-21T03:45:01.378Z,102939.58
2019-03-21T03:47:33.273Z,102941.98
2019-03-21T03:50:07.241Z,102936.73
2019-03-21T03:52:38.389Z,102937.30
2019-03-21T03:55:11.079Z,102946.58
2019-03-21T03:57:43.072Z,102950.20
2019-03-21T04:00:17.326Z,102950.14
2019-03-21T04:02:52.809Z,102952.20
2019-03-21T04:05:25.435Z,102948.59
2019-03-21T04:07:59.510Z,102951.82
2019-03-21T04:10:36.431Z,102955.17
2019-03-21T04:13:09.439Z,102950.92
2019-03-21T04:15:52.319Z,102950.36
2019-03-21T04:18:15.889Z,102955.48
2019-03-21T04:20:51.482Z,102959.04
2019-03-21T04:23:25.188Z,102953.98
2019-03-21T04:26:05.958Z,102960.28
2019-03-21T04:28:42.024Z,102961.31
2019-03-21T04:31:14.977Z,102961.05
2019-03-21T04:33:47.991Z,102958.80
2019-03-21T04:36:20.377Z,102954.30
2019-03-21T04:38:53.928Z,102956.92
2019-03-21T04:41:26.188Z,102958.34
2019-03-21T04:43:58.974Z,102952.78
2019-03-21T04:46:30.834Z,102957.16
2019-03-21T04:49:02.084Z,102952.66
2019-03-21T04:51:33.680Z,102950.59
2019-03-21T04:54:06.475Z,102965.41
2019-03-21T04:56:37.157Z,102962.80
2019-03-21T04:59:08.371Z,102958.66
2019-03-21T05:01:39.475Z,102960.12
2019-03-21T05:04:11.357Z,102966.06
2019-03-21T05:06:45.476Z,102963.41
2019-03-21T05:09:20.305Z,102963.79
2019-03-21T05:11:52.658Z,102963.39
2019-03-21T05:14:23.729Z,102964.95
2019-03-21T05:16:54.965Z,102960.28
2019-03-21T05:19:26.357Z,102969.08
2019-03-21T05:21:59.262Z,102966.58
2019-03-21T05:24:30.456Z,102971.34
2019-03-21T05:27:02.653Z,102973.35
2019-03-21T05:29:33.602Z,102979.52
2019-03-21T05:32:04.912Z,102976.88
2019-03-21T05:34:35.644Z,102979.72
2019-03-21T05:37:11.977Z,102980.85
2019-03-21T05:39:43.376Z,102985.33
2019-03-21T05:42:19.344Z,102985.05
2019-03-21T05:44:51.281Z,102987.14
2019-03-21T05:47:22.496Z,102989.34
2019-03-21T05:49:54.536Z,102992.34
2019-03-21T05:52:27.553Z,102996.03
2019-03-21T05:54:59.042Z,102992.17
2019-03-21T05:57:31.476Z,102987.76
2019-03-21T06:00:03.332Z,102988.56
2019-03-21T06:02:34.568Z,102999.84
2019-03-21T06:05:09.398Z,102997.66
2019-03-21T06:08:00.833Z,103001.51
2019-03-21T06:10:31.548Z,102992.78
2019-03-21T06:13:02.417Z,103000.94
2019-03-21T06:15:36.813Z,103000.01
2019-03-21T06:18:57.168Z,103000.05
2019-03-21T06:22:01.951Z,103004.44
2019-03-21T06:25:01.418Z,103008.17
2019-03-21T06:27:33.929Z,103006.59
2019-03-21T06:30:07.086Z,103009.85
2019-03-21T06:32:38.166Z,103018.92
2019-03-21T06:35:35.646Z,103019.06
2019-03-21T06:38:27.253Z,103011.16
2019-03-21T06:41:00.090Z,103013.53
2019-03-21T06:43:31.660Z,103016.98
2019-03-21T06:46:03.197Z,103013.61
2019-03-21T06:48:35.180Z,103015.44
2019-03-21T06:51:06.479Z,103008.69
2019-03-21T06:53:38.321Z,103009.69
2019-03-21T06:56:10.863Z,103013.56
2019-03-21T06:58:43.487Z,103017.78
2019-03-21T07:01:15.371Z,103017.38
2019-03-21T07:03:47.225Z,103018.78
2019-03-21T07:06:19.896Z,103012.66
2019-03-21T07:08:53.412Z,103014.97
2019-03-21T07:11:27.467Z,103020.12
2019-03-21T07:14:00.454Z,103014.05
2019-03-21T07:16:36.826Z,103016.45
2019-03-21T07:19:12.878Z,103008.30
2019-03-21T07:21:46.557Z,103016.48
2019-03-21T07:24:20.974Z,103014.86
2019-03-21T07:26:54.202Z,103017.25
2019-03-21T07:29:24.940Z,103016.56
2019-03-21T07:31:56.154Z,103010.73
2019-03-21T07:34:28.989Z,103007.95
2019-03-21T07:37:00.237Z,103017.59
2019-03-21T07:39:31.556Z,103019.37
2019-03-21T07:42:03.747Z,103022.12
2019-03-21T07:44:34.909Z,103022.41
2019-03-21T07:47:12.655Z,103017.98
2019-03-21T07:49:38.461Z,103022.20
2019-03-21T07:52:09.554Z,103016.25
2019-03-21T07:54:41.527Z,103015.41
2019-03-21T07:57:14.110Z,103018.58
2019-03-21T08:02:14.884Z,103019.29
2019-03-21T08:04:48.692Z,103013.02
2019-03-21T08:07:21.475Z,103013.91
2019-03-21T08:09:52.924Z,103017.96
2019-03-21T08:12:25.742Z,103016.50
2019-03-21T08:14:57.939Z,103011.27
2019-03-21T08:17:31.075Z,103015.69
2019-03-21T08:20:04.361Z,103013.73
2019-03-21T08:22:38.829Z,103010.67
2019-03-21T08:25:11.158Z,103016.55
2019-03-21T08:27:45.963Z,103018.98
2019-03-21T08:30:39.960Z,103019.05
2019-03-21T08:33:12.824Z,103008.63
2019-03-21T08:35:44.032Z,103014.20
2019-03-21T08:38:17.674Z,103013.84
2019-03-21T08:40:51.501Z,103017.66
2019-03-21T08:43:24.018Z,103012.06
2019-03-21T08:45:57.047Z,103004.64
2019-03-21T08:48:30.343Z,103011.84
2019-03-21T08:51:08.192Z,103018.64
2019-03-21T08:53:37.433Z,103017.23
2019-03-21T08:56:09.402Z,103011.42
2019-03-21T08:58:42.909Z,103023.06
2019-03-21T09:01:15.284Z,103015.63
2019-03-21T09:03:47.832Z,103011.93
2019-03-21T09:06:18.832Z,103013.83
2019-03-21T09:08:52.636Z,103013.53
2019-03-21T09:11:28.350Z,103008.28
2019-03-21T09:13:59.575Z,103011.30
2019-03-21T09:16:32.511Z,103012.30
2019-03-21T09:19:03.598Z,103008.70
2019-03-21T09:21:35.105Z,103004.41
2019-03-21T09:24:07.335Z,103000.01
2019-03-21T09:26:38.958Z,103009.65
2019-03-21T09:29:11.730Z,103000.02
2019-03-21T09:31:42.901Z,102999.97
2019-03-21T09:34:13.787Z,102998.16
2019-03-21T09:36:44.597Z,103000.36
2019-03-21T09:39:17.744Z,103004.78
2019-03-21T09:41:49.599Z,102996.81
2019-03-21T09:44:25.336Z,102998.59
2019-03-21T09:46:56.789Z,102997.13
2019-03-21T09:49:29.539Z,102998.78
2019-03-21T09:52:01.540Z,103000.89
2019-03-21T09:54:34.251Z,103000.47
2019-03-21T09:57:06.169Z,102994.56
2019-03-21T09:59:39.139Z,102994.37
2019-03-21T10:02:10.760Z,102987.81
2019-03-21T10:04:42.016Z,102991.23
2019-03-21T10:07:12.895Z,102987.41
2019-03-21T10:09:45.837Z,102989.11
2019-03-21T10:12:17.558Z,102992.56
2019-03-21T10:14:52.094Z,102994.56
2019-03-21T10:17:24.159Z,102993.52
2019-03-21T10:19:56.031Z,102991.89
2019-03-21T10:22:27.634Z,102987.81
2019-03-21T10:24:59.281Z,102993.12
2019-03-21T10:27:31.391Z,102999.59
2019-03-21T10:30:02.685Z,102993.48
2019-03-21T10:32:33.481Z,102987.88
2019-03-21T10:35:05.876Z,102994.74
2019-03-21T10:37:37.134Z,102992.72
2019-03-21T10:40:08.459Z,102986.53
2019-03-21T10:42:40.029Z,102990.68
2019-03-21T10:45:12.960Z,102983.48
2019-03-21T10:47:43.665Z,102987.27
2019-03-21T10:50:18.130Z,102978.67
2019-03-21T10:52:48.931Z,102973.95
2019-03-21T10:55:20.746Z,102974.32
2019-03-21T10:57:52.643Z,102967.66
2019-03-21T11:00:24.713Z,102969.30
2019-03-21T11:02:55.891Z,102977.80
2019-03-21T11:05:28.614Z,102970.50
2019-03-21T11:08:00.937Z,102977.31
2019-03-21T11:10:33.367Z,102967.68
2019-03-21T11:13:04.731Z,102970.18
2019-03-21T11:15:38.057Z,102963.65
2019-03-21T11:18:08.943Z,102962.30
2019-03-21T11:20:43.399Z,102961.23
2019-03-21T11:23:16.229Z,102964.02
2019-03-21T11:25:49.354Z,102961.47
2019-03-21T11:28:22.131Z,102963.20
2019-03-21T11:30:55.298Z,102951.83
2019-03-21T11:33:26.866Z,102951.44
2019-03-21T11:35:58.098Z,102945.13
2019-03-21T11:38:29.300Z,102952.69
2019-03-21T11:41:00.711Z,102940.33
2019-03-21T11:43:33.842Z,102933.89
2019-03-21T11:46:07.013Z,102925.52
2019-03-21T11:48:38.511Z,102929.22
2019-03-21T11:51:10.246Z,102932.75
2019-03-21T11:53:41.236Z,102932.14
2019-03-21T11:56:13.373Z,102935.36
2019-03-21T11:58:47.592Z,102929.69
2019-03-21T12:01:21.164Z,102928.39
2019-03-21T12:03:52.660Z,102918.19
2019-03-21T12:06:24.872Z,102915.77
2019-03-21T12:08:57.793Z,102916.19
2019-03-21T12:11:30.138Z,102915.95
2019-03-21T12:14:01.192Z,102911.08
2019-03-21T12:16:33.214Z,102908.95
2019-03-21T12:19:08.437Z,102901.94
2019-03-21T12:21:40.100Z,102899.72
2019-03-21T12:24:12.917Z,102897.87
2019-03-21T12:26:46.007Z,102895.23
2019-03-21T12:29:17.118Z,102897.09
2019-03-21T12:31:49.977Z,102895.86
2019-03-21T12:34:21.299Z,102889.70
2019-03-21T12:36:52.057Z,102887.48
2019-03-21T12:39:24.294Z,102893.44
2019-03-21T12:42:06.376Z,102882.91
2019-03-21T12:44:37.973Z,102880.51
2019-03-21T12:47:10.471Z,102881.73
2019-03-21T12:49:41.186Z,102891.37
2019-03-21T12:52:12.552Z,102887.09
2019-03-21T12:54:44.685Z,102891.43
2019-03-21T12:57:16.928Z,102885.40
2019-03-21T12:59:47.629Z,102879.23
2019-03-21T13:02:31.962Z,102880.26
2019-03-21T13:04:55.822Z,102878.93
2019-03-21T13:07:26.388Z,102880.48
2019-03-21T13:09:59.191Z,102887.05
2019-03-21T13:12:33.420Z,102881.65
2019-03-21T13:15:04.730Z,102871.73
2019-03-21T13:17:36.149Z,102871.16
2019-03-21T13:20:07.910Z,102876.52
2019-03-21T13:22:40.653Z,102863.39
2019-03-21T13:25:12.828Z,102867.98
2019-03-21T13:27:44.002Z,102862.25
2019-03-21T13:30:14.924Z,102865.16
2019-03-21T13:32:47.269Z,102856.39
2019-03-21T13:35:19.048Z,102850.80
2019-03-21T13:37:54.003Z,102854.43
2019-03-21T13:40:26.617Z,102854.53
2019-03-21T13:42:58.252Z,102841.55
2019-03-21T13:45:30.283Z,102839.95
2019-03-21T13:48:02.467Z,102836.48
2019-03-21T13:50:33.572Z,102828.39
2019-03-21T13:53:17.619Z,102827.61
2019-03-21T13:55:40.101Z,102825.09
2019-03-21T13:58:11.572Z,102819.98
2019-03-21T14:00:43.146Z,102822.83
2019-03-21T14:03:25.005Z,102818.39
2019-03-21T14:05:52.074Z,102815.52
2019-03-21T14:08:23.105Z,102807.94
2019-03-21T14:10:55.183Z,102801.41
2019-03-21T14:13:28.244Z,102800.58
2019-03-21T14:16:00.244Z,102796.23
2019-03-21T14:18:35.694Z,102793.48
2019-03-21T14:21:07.529Z,102785.45
2019-03-21T14:23:43.540Z,102791.14
2019-03-21T14:26:12.662Z,102786.37
2019-03-21T14:28:46.912Z,102781.59
2019-03-21T14:31:17.728Z,102785.66
2019-03-21T14:33:50.630Z,102781.78
2019-03-21T14:36:23.961Z,102778.79
2019-03-21T14:39:23.042Z,102772.84
2019-03-21T14:41:53.778Z,102763.27
2019-03-21T14:44:24.531Z,102767.59
2019-03-21T14:46:58.002Z,102767.79
2019-03-21T14:49:29.801Z,102765.00
2019-03-21T14:52:00.606Z,102771.45
2019-03-21T14:54:32.369Z,102761.99
2019-03-21T14:57:03.563Z,102771.67
2019-03-21T14:59:34.717Z,102768.61
2019-03-21T15:02:08.268Z,102761.08
2019-03-21T15:04:42.189Z,102757.83
2019-03-21T15:07:13.787Z,102757.72
2019-03-21T15:09:45.022Z,102755.64
2019-03-21T15:12:16.346Z,102751.14
2019-03-21T15:14:49.044Z,102739.98
2019-03-21T15:17:21.147Z,102737.11
2019-03-21T15:19:54.819Z,102734.28
2019-03-21T15:22:26.408Z,102719.67
2019-03-21T15:24:57.568Z,102724.38
2019-03-21T15:27:31.729Z,102723.38
2019-03-21T15:30:03.651Z,102714.70
2019-03-21T15:32:35.782Z,102709.36
2019-03-21T15:35:10.950Z,102703.85
2019-03-21T15:37:44.787Z,102697.41
2019-03-21T15:40:17.264Z,102697.92
2019-03-21T15:42:49.216Z,102695.14
2019-03-21T15:45:23.947Z,102686.17
2019-03-21T15:47:58.031Z,102694.41
2019-03-21T15:50:38.662Z,102689.50
2019-03-21T15:53:09.785Z,102685.40
2019-03-21T15:55:40.910Z,102683.01
2019-03-21T15:58:12.098Z,102680.17
2019-03-21T16:00:47.881Z,102678.51
2019-03-21T16:03:20.107Z,102676.29
2019-03-21T16:05:54.555Z,102676.58
2019-03-21T16:08:27.412Z,102673.27
2019-03-21T16:10:58.611Z,102669.29
2019-03-21T16:13:30.174Z,102667.15
2019-03-21T16:16:02.646Z,102672.95
2019-03-21T16:18:37.984Z,102680.25
2019-03-21T16:21:17.890Z,102671.36
2019-03-21T16:23:49.803Z,102667.45
2019-03-21T16:26:21.286Z,102659.41
2019-03-21T16:28:53.275Z,102657.79
2019-03-21T16:31:24.912Z,102659.77
2019-03-21T16:33:56.190Z,102661.44
2019-03-21T16:36:27.959Z,102661.78
2019-03-21T16:38:59.442Z,102655.84
2019-03-21T16:41:30.694Z,102646.26
2019-03-21T16:44:01.396Z,102652.40
2019-03-21T16:46:32.919Z,102652.40
2019-03-21T16:49:05.444Z,102651.60
2019-03-21T16:51:38.578Z,102654.28
2019-03-21T16:54:17.007Z,102654.28
2019-03-21T16:56:43.256Z,102647.18
2019-03-21T16:59:16.154Z,102647.89
2019-03-21T17:01:48.468Z,102648.00
2019-03-21T17:04:19.960Z,102650.04
2019-03-21T17:06:51.771Z,102657.08
2019-03-21T17:09:23.411Z,102649.34
2019-03-21T17:11:54.523Z,102650.64
2019-03-21T17:14:28.372Z,102647.70
2019-03-21T17:17:00.543Z,102639.36
2019-03-21T17:19:31.688Z,102639.36
2019-03-21T17:22:03.675Z,102649.16
2019-03-21T17:24:34.768Z,102655.61
2019-03-21T17:27:06.385Z,102657.55
2019-03-21T17:29:37.598Z,102655.58
2019-03-21T17:32:09.463Z,102661.77
2019-03-21T17:34:40.851Z,102654.50
2019-03-21T17:37:15.783Z,102661.50
2019-03-21T17:39:49.238Z,102658.70
2019-03-21T17:42:21.872Z,102651.84
2019-03-21T17:44:56.945Z,102649.97
2019-03-21T17:47:29.705Z,102658.77
2019-03-21T17:50:01.697Z,102655.16
2019-03-21T17:52:34.645Z,102660.37
2019-03-21T17:55:07.417Z,102661.45
2019-03-21T17:57:44.899Z,102669.11
2019-03-21T18:00:22.814Z,102672.22
2019-03-21T18:02:55.569Z,102668.91
2019-03-21T18:05:27.013Z,102664.88
2019-03-21T18:07:59.158Z,102667.26
2019-03-21T18:10:32.946Z,102661.50
2019-03-21T18:13:04.805Z,102665.22
2019-03-21T18:15:36.577Z,102666.75
2019-03-21T18:18:10.837Z,102670.20
2019-03-21T18:20:42.133Z,102676.16
2019-03-21T18:23:14.265Z,102683.05
2019-03-21T18:25:46.525Z,102686.77
2019-03-21T18:28:17.715Z,102674.96
2019-03-21T18:30:48.875Z,102675.98
2019-03-21T18:33:19.639Z,102672.56
2019-03-21T18:35:52.451Z,102675.31
2019-03-21T18:38:24.592Z,102671.89
2019-03-21T18:40:56.437Z,102681.56
2019-03-21T18:43:27.305Z,102685.23
2019-03-21T18:45:58.024Z,102688.52
2019-03-21T18:48:29.096Z,102685.05
2019-03-21T18:51:02.019Z,102693.64
2019-03-21T18:53:37.879Z,102697.34
2019-03-21T18:56:11.417Z,102701.50
2019-03-21T18:58:42.327Z,102690.89
2019-03-21T19:01:15.505Z,102686.47
2019-03-21T19:03:46.738Z,102682.96
2019-03-21T19:06:19.611Z,102690.27
2019-03-21T19:08:51.524Z,102690.81
2019-03-21T19:11:23.492Z,102693.11
2019-03-21T19:13:54.938Z,102690.09
2019-03-21T19:16:26.020Z,102691.04
2019-03-21T19:18:58.489Z,102691.13
2019-03-21T19:21:29.729Z,102693.45
2019-03-21T19:24:05.839Z,102693.94
2019-03-21T19:26:37.248Z,102699.40
2019-03-21T19:29:10.378Z,102698.64
2019-03-21T19:31:42.259Z,102703.22
2019-03-21T19:34:13.957Z,102697.91
2019-03-21T19:36:44.961Z,102698.42
2019-03-21T19:39:21.339Z,102703.39
2019-03-21T19:41:53.819Z,102699.03
2019-03-21T19:44:25.540Z,102703.20
2019-03-21T19:47:01.274Z,102703.75
2019-03-21T19:49:31.998Z,102698.62
2019-03-21T19:52:05.439Z,102700.33
2019-03-21T19:54:37.308Z,102702.13
2019-03-21T19:57:09.889Z,102695.02
2019-03-21T19:59:42.483Z,102699.56
2019-03-21T20:02:14.809Z,102699.10
2019-03-21T20:04:48.326Z,102701.33
2019-03-21T20:07:19.756Z,102695.63
2019-03-21T20:09:51.390Z,102692.52
2019-03-21T20:12:23.005Z,102693.03
2019-03-21T20:14:57.025Z,102695.28
2019-03-21T20:17:27.808Z,102700.22
2019-03-21T20:20:00.019Z,102695.97
2019-03-21T20:22:33.746Z,102700.49
2019-03-21T20:25:07.835Z,102696.58
2019-03-21T20:27:40.469Z,102695.75
2019-03-21T20:30:14.041Z,102692.67
2019-03-21T20:32:47.166Z,102692.25
2019-03-21T20:35:19.807Z,102695.06
2019-03-21T20:37:50.685Z,102696.45
2019-03-21T20:40:23.772Z,102703.66
2019-03-21T20:42:58.140Z,102694.77
2019-03-21T20:45:30.703Z,102693.53
2019-03-21T20:48:02.097Z,102698.91
2019-03-21T20:50:33.308Z,102695.84
2019-03-21T20:53:05.478Z,102694.52
2019-03-21T20:55:39.437Z,102689.24
2019-03-21T20:58:12.397Z,102688.81
2019-03-21T21:00:44.587Z,102683.93
2019-03-21T21:03:17.725Z,102685.35
2019-03-21T21:05:49.301Z,102684.11
2019-03-21T21:08:20.950Z,102687.27
2019-03-21T21:10:54.947Z,102683.73
2019-03-21T21:13:28.930Z,102682.02
2019-03-21T21:16:03.020Z,102690.63
2019-03-21T21:18:36.354Z,102686.67
2019-03-21T21:21:08.964Z,102688.11
2019-03-21T21:23:39.929Z,102683.80
2019-03-21T21:26:13.322Z,102685.23
2019-03-21T21:28:44.076Z,102686.63
2019-03-21T21:31:14.927Z,102684.00
2019-03-21T21:33:46.079Z,102677.37
2019-03-21T21:36:22.100Z,102679.19
2019-03-21T21:38:53.543Z,102679.21
2019-03-21T21:41:25.819Z,102679.36
2019-03-21T21:44:04.352Z,102683.81
2019-03-21T21:46:36.562Z,102681.63
2019-03-21T21:49:08.997Z,102680.31
2019-03-21T21:51:41.637Z,102675.00
2019-03-21T21:54:13.903Z,102674.62
2019-03-21T21:56:46.951Z,102678.67
2019-03-21T21:59:18.887Z,102669.39
2019-03-21T22:01:52.773Z,102667.67
2019-03-21T22:04:26.396Z,102666.42
2019-03-21T22:06:59.342Z,102665.58
2019-03-21T22:09:32.072Z,102667.08
2019-03-21T22:12:06.858Z,102672.41
2019-03-21T22:14:38.399Z,102666.91
2019-03-21T22:17:09.755Z,102672.98
2019-03-21T22:19:43.826Z,102665.87
2019-03-21T22:22:19.135Z,102664.66
2019-03-21T22:24:50.671Z,102665.55
2019-03-21T22:27:25.228Z,102661.56
2019-03-21T22:29:57.918Z,102664.75
2019-03-21T22:32:29.469Z,102664.32
2019-03-21T22:35:00.616Z,102669.48
2019-03-21T22:37:31.381Z,102668.14
2019-03-21T22:40:03.004Z,102669.41
2019-03-21T22:42:34.617Z,102665.42
2019-03-21T22:45:08.126Z,102670.83
2019-03-21T22:47:40.869Z,102665.95
2019-03-21T22:50:15.089Z,102662.46
2019-03-21T22:52:47.024Z,102668.76
2019-03-21T22:55:18.261Z,102669.73
2019-03-21T22:57:50.303Z,102664.83
2019-03-21T23:00:29.431Z,102661.28
2019-03-21T23:03:03.445Z,102659.58
2019-03-21T23:05:34.232Z,102654.31
2019-03-21T23:08:07.003Z,102649.84
2019-03-21T23:10:39.075Z,102654.83
2019-03-21T23:13:11.519Z,102644.98
2019-03-21T23:15:42.235Z,102645.50
2019-03-21T23:18:13.906Z,102642.97
2019-03-21T23:20:44.689Z,102649.05
2019-03-21T23:23:17.337Z,102648.59
2019-03-21T23:25:48.539Z,102638.04
2019-03-21T23:28:20.225Z,102645.09
2019-03-21T23:30:51.065Z,102645.94
2019-03-21T23:33:23.249Z,102642.88
2019-03-21T23:35:54.424Z,102633.59
2019-03-21T23:38:29.311Z,102639.18
2019-03-21T23:41:03.391Z,102630.64
2019-03-21T23:43:36.859Z,102639.62
2019-03-21T23:46:08.335Z,102644.49
2019-03-21T23:48:40.487Z,102643.73
2019-03-21T23:51:12.344Z,102641.50
2019-03-21T23:53:44.969Z,102640.48
2019-03-21T23:56:17.671Z,102640.97
2019-03-21T23:58:51.289Z,102639.14
